sensor_id;sensor_type;location;lat;lon;timestamp;P1;durP1;ratioP1;P2;durP2;ratioP2
1831;SDS011;1680;48.106;11.708;2022-12-07T00:01:48;9.23;;;8.33;;
1831;SDS011;1680;48.106;11.708;2022-12-07T00:04:16;10.23;;;8.38;;
1831;SDS011;1680;48.106;11.708;2022-12-07T00:06:45;10.77;;;8.63;;
1831;SDS011;1680;48.106;11.708;2022-12-07T00:09:18;11.93;;;9.48;;
1831;SDS011;1680;48.106;11.708;2022-12-07T00:11:48;11.50;;;9.87;;
1831;SDS011;1680;48.106;11.708;2022-12-07T00:14:16;11.10;;;9.13;;
1831;SDS011;1680;48.106;11.708;2022-12-07T00:16:44;11.27;;;10.07;;
1831;SDS011;1680;48.106;11.708;2022-12-07T00:19:12;10.95;;;9.10;;
1831;SDS011;1680;48.106;11.708;2022-12-07T00:21:40;12.60;;;10.13;;
1831;SDS011;1680;48.106;11.708;2022-12-07T00:24:07;12.67;;;10.20;;
1831;SDS011;1680;48.106;11.708;2022-12-07T00:26:37;9.48;;;8.38;;
1831;SDS011;1680;48.106;11.708;2022-12-07T00:29:06;12.23;;;10.40;;
1831;SDS011;1680;48.106;11.708;2022-12-07T00:31:36;11.33;;;10.13;;
1831;SDS011;1680;48.106;11.708;2022-12-07T00:34:04;11.07;;;8.83;;
1831;SDS011;1680;48.106;11.708;2022-12-07T00:36:32;11.77;;;9.77;;
1831;SDS011;1680;48.106;11.708;2022-12-07T00:38:59;10.63;;;9.20;;
1831;SDS011;1680;48.106;11.708;2022-12-07T00:41:28;10.20;;;8.57;;
1831;SDS011;1680;48.106;11.708;2022-12-07T00:43:57;10.18;;;9.05;;
1831;SDS011;1680;48.106;11.708;2022-12-07T00:46:27;10.77;;;9.50;;
1831;SDS011;1680;48.106;11.708;2022-12-07T00:48:54;13.13;;;9.40;;
1831;SDS011;1680;48.106;11.708;2022-12-07T00:51:22;11.23;;;10.03;;
1831;SDS011;1680;48.106;11.708;2022-12-07T00:53:51;10.47;;;9.30;;
1831;SDS011;1680;48.106;11.708;2022-12-07T00:56:19;11.97;;;8.80;;
1831;SDS011;1680;48.106;11.708;2022-12-07T00:58:52;11.63;;;8.87;;
1831;SDS011;1680;48.106;11.708;2022-12-07T01:01:22;10.13;;;8.30;;
1831;SDS011;1680;48.106;11.708;2022-12-07T01:03:49;9.50;;;8.48;;
1831;SDS011;1680;48.106;11.708;2022-12-07T01:06:17;9.63;;;8.60;;
1831;SDS011;1680;48.106;11.708;2022-12-07T01:08:46;9.50;;;8.50;;
1831;SDS011;1680;48.106;11.708;2022-12-07T01:11:14;9.48;;;8.40;;
1831;SDS011;1680;48.106;11.708;2022-12-07T01:13:43;9.70;;;8.23;;
1831;SDS011;1680;48.106;11.708;2022-12-07T01:16:11;9.33;;;8.23;;
1831;SDS011;1680;48.106;11.708;2022-12-07T01:18:41;9.60;;;8.10;;
1831;SDS011;1680;48.106;11.708;2022-12-07T01:21:12;7.40;;;6.67;;
1831;SDS011;1680;48.106;11.708;2022-12-07T01:23:41;9.50;;;8.47;;
1831;SDS011;1680;48.106;11.708;2022-12-07T01:26:10;9.40;;;8.47;;
1831;SDS011;1680;48.106;11.708;2022-12-07T01:28:38;9.48;;;8.57;;
1831;SDS011;1680;48.106;11.708;2022-12-07T01:31:07;9.10;;;8.20;;
1831;SDS011;1680;48.106;11.708;2022-12-07T01:33:37;9.98;;;8.32;;
1831;SDS011;1680;48.106;11.708;2022-12-07T01:36:07;9.32;;;8.20;;
1831;SDS011;1680;48.106;11.708;2022-12-07T01:38:39;8.80;;;7.17;;
1831;SDS011;1680;48.106;11.708;2022-12-07T01:41:07;8.20;;;7.35;;
1831;SDS011;1680;48.106;11.708;2022-12-07T01:43:34;7.97;;;7.17;;
1831;SDS011;1680;48.106;11.708;2022-12-07T01:46:02;8.37;;;7.47;;
1831;SDS011;1680;48.106;11.708;2022-12-07T01:48:31;9.17;;;8.10;;
1831;SDS011;1680;48.106;11.708;2022-12-07T01:51:01;9.57;;;7.70;;
1831;SDS011;1680;48.106;11.708;2022-12-07T01:53:33;9.40;;;8.37;;
1831;SDS011;1680;48.106;11.708;2022-12-07T01:56:03;9.27;;;8.00;;
1831;SDS011;1680;48.106;11.708;2022-12-07T01:58:31;7.80;;;7.00;;
1831;SDS011;1680;48.106;11.708;2022-12-07T02:00:58;8.83;;;7.93;;
1831;SDS011;1680;48.106;11.708;2022-12-07T02:03:27;9.45;;;8.45;;
1831;SDS011;1680;48.106;11.708;2022-12-07T02:05:58;8.83;;;7.87;;
1831;SDS011;1680;48.106;11.708;2022-12-07T02:08:26;8.30;;;7.50;;
1831;SDS011;1680;48.106;11.708;2022-12-07T02:10:55;9.07;;;8.02;;
1831;SDS011;1680;48.106;11.708;2022-12-07T02:13:23;8.57;;;7.63;;
1831;SDS011;1680;48.106;11.708;2022-12-07T02:18:56;8.80;;;7.90;;
1831;SDS011;1680;48.106;11.708;2022-12-07T02:21:35;8.93;;;8.03;;
1831;SDS011;1680;48.106;11.708;2022-12-07T02:24:18;8.60;;;7.80;;
1831;SDS011;1680;48.106;11.708;2022-12-07T02:27:13;8.32;;;7.53;;
1831;SDS011;1680;48.106;11.708;2022-12-07T02:29:57;9.68;;;8.68;;
1831;SDS011;1680;48.106;11.708;2022-12-07T02:32:27;8.35;;;7.45;;
1831;SDS011;1680;48.106;11.708;2022-12-07T02:35:05;10.03;;;7.67;;
1831;SDS011;1680;48.106;11.708;2022-12-07T02:37:34;8.70;;;7.80;;
1831;SDS011;1680;48.106;11.708;2022-12-07T02:40:08;8.77;;;7.87;;
1831;SDS011;1680;48.106;11.708;2022-12-07T02:42:40;8.38;;;7.45;;
1831;SDS011;1680;48.106;11.708;2022-12-07T02:45:13;9.20;;;8.13;;
1831;SDS011;1680;48.106;11.708;2022-12-07T02:47:42;8.50;;;7.47;;
1831;SDS011;1680;48.106;11.708;2022-12-07T02:50:11;8.70;;;7.40;;
1831;SDS011;1680;48.106;11.708;2022-12-07T02:52:38;9.63;;;7.80;;
1831;SDS011;1680;48.106;11.708;2022-12-07T02:55:05;7.37;;;6.63;;
1831;SDS011;1680;48.106;11.708;2022-12-07T02:57:43;9.17;;;7.80;;
1831;SDS011;1680;48.106;11.708;2022-12-07T03:00:21;9.10;;;8.20;;
1831;SDS011;1680;48.106;11.708;2022-12-07T03:02:53;8.70;;;7.80;;
1831;SDS011;1680;48.106;11.708;2022-12-07T03:08:28;7.77;;;7.00;;
1831;SDS011;1680;48.106;11.708;2022-12-07T03:11:00;8.07;;;7.37;;
1831;SDS011;1680;48.106;11.708;2022-12-07T03:13:33;8.40;;;7.60;;
1831;SDS011;1680;48.106;11.708;2022-12-07T03:16:07;8.83;;;7.10;;
1831;SDS011;1680;48.106;11.708;2022-12-07T03:18:43;8.30;;;7.40;;
1831;SDS011;1680;48.106;11.708;2022-12-07T03:21:15;7.78;;;6.95;;
1831;SDS011;1680;48.106;11.708;2022-12-07T03:23:46;8.03;;;7.20;;
1831;SDS011;1680;48.106;11.708;2022-12-07T03:26:16;7.88;;;7.07;;
1831;SDS011;1680;48.106;11.708;2022-12-07T03:28:51;9.00;;;7.10;;
1831;SDS011;1680;48.106;11.708;2022-12-07T03:31:24;8.40;;;7.20;;
1831;SDS011;1680;48.106;11.708;2022-12-07T03:33:57;8.00;;;7.10;;
1831;SDS011;1680;48.106;11.708;2022-12-07T03:36:30;7.90;;;7.10;;
1831;SDS011;1680;48.106;11.708;2022-12-07T03:39:03;9.83;;;8.10;;
1831;SDS011;1680;48.106;11.708;2022-12-07T03:41:40;10.03;;;8.97;;
1831;SDS011;1680;48.106;11.708;2022-12-07T03:44:07;9.00;;;8.10;;
1831;SDS011;1680;48.106;11.708;2022-12-07T03:46:37;8.47;;;7.60;;
1831;SDS011;1680;48.106;11.708;2022-12-07T03:49:11;8.40;;;7.50;;
1831;SDS011;1680;48.106;11.708;2022-12-07T03:51:45;7.80;;;7.00;;
1831;SDS011;1680;48.106;11.708;2022-12-07T03:54:22;9.53;;;8.17;;
1831;SDS011;1680;48.106;11.708;2022-12-07T03:56:54;9.63;;;8.70;;
1831;SDS011;1680;48.106;11.708;2022-12-07T03:59:22;9.20;;;8.20;;
1831;SDS011;1680;48.106;11.708;2022-12-07T04:01:52;8.70;;;7.80;;
1831;SDS011;1680;48.106;11.708;2022-12-07T04:04:21;9.40;;;8.40;;
1831;SDS011;1680;48.106;11.708;2022-12-07T04:06:49;9.50;;;8.10;;
1831;SDS011;1680;48.106;11.708;2022-12-07T04:09:17;8.97;;;8.07;;
1831;SDS011;1680;48.106;11.708;2022-12-07T04:11:44;9.87;;;8.70;;
1831;SDS011;1680;48.106;11.708;2022-12-07T04:14:11;10.20;;;9.20;;
1831;SDS011;1680;48.106;11.708;2022-12-07T04:16:44;9.23;;;8.33;;
1831;SDS011;1680;48.106;11.708;2022-12-07T04:19:13;9.15;;;8.25;;
1831;SDS011;1680;48.106;11.708;2022-12-07T04:21:41;10.60;;;8.90;;
1831;SDS011;1680;48.106;11.708;2022-12-07T04:24:08;9.17;;;8.30;;
1831;SDS011;1680;48.106;11.708;2022-12-07T04:26:36;10.00;;;9.03;;
1831;SDS011;1680;48.106;11.708;2022-12-07T04:29:03;10.75;;;9.30;;
1831;SDS011;1680;48.106;11.708;2022-12-07T04:31:30;10.00;;;9.00;;
1831;SDS011;1680;48.106;11.708;2022-12-07T04:33:57;9.23;;;8.33;;
1831;SDS011;1680;48.106;11.708;2022-12-07T04:36:26;11.07;;;9.67;;
1831;SDS011;1680;48.106;11.708;2022-12-07T04:38:54;11.20;;;9.97;;
1831;SDS011;1680;48.106;11.708;2022-12-07T04:41:22;10.60;;;9.55;;
1831;SDS011;1680;48.106;11.708;2022-12-07T04:43:53;12.20;;;10.53;;
1831;SDS011;1680;48.106;11.708;2022-12-07T04:46:21;10.60;;;9.52;;
1831;SDS011;1680;48.106;11.708;2022-12-07T04:48:48;11.83;;;10.17;;
1831;SDS011;1680;48.106;11.708;2022-12-07T04:51:16;10.83;;;9.70;;
1831;SDS011;1680;48.106;11.708;2022-12-07T04:53:47;11.07;;;9.98;;
1831;SDS011;1680;48.106;11.708;2022-12-07T04:56:15;12.38;;;11.07;;
1831;SDS011;1680;48.106;11.708;2022-12-07T04:58:43;11.77;;;10.53;;
1831;SDS011;1680;48.106;11.708;2022-12-07T05:01:11;14.60;;;10.40;;
1831;SDS011;1680;48.106;11.708;2022-12-07T05:03:39;13.20;;;11.00;;
1831;SDS011;1680;48.106;11.708;2022-12-07T05:06:06;13.18;;;11.80;;
1831;SDS011;1680;48.106;11.708;2022-12-07T05:08:34;12.70;;;11.30;;
1831;SDS011;1680;48.106;11.708;2022-12-07T05:11:03;11.95;;;10.55;;
1831;SDS011;1680;48.106;11.708;2022-12-07T05:13:31;13.43;;;11.25;;
1831;SDS011;1680;48.106;11.708;2022-12-07T05:15:59;13.25;;;11.35;;
1831;SDS011;1680;48.106;11.708;2022-12-07T05:18:26;11.55;;;10.35;;
1831;SDS011;1680;48.106;11.708;2022-12-07T05:20:54;11.75;;;10.55;;
1831;SDS011;1680;48.106;11.708;2022-12-07T05:23:21;11.67;;;10.47;;
1831;SDS011;1680;48.106;11.708;2022-12-07T05:25:48;13.00;;;11.63;;
1831;SDS011;1680;48.106;11.708;2022-12-07T05:28:16;12.68;;;11.38;;
1831;SDS011;1680;48.106;11.708;2022-12-07T05:30:43;13.98;;;10.88;;
1831;SDS011;1680;48.106;11.708;2022-12-07T05:33:10;11.23;;;10.02;;
1831;SDS011;1680;48.106;11.708;2022-12-07T05:35:38;12.30;;;10.70;;
1831;SDS011;1680;48.106;11.708;2022-12-07T05:38:05;12.23;;;10.93;;
1831;SDS011;1680;48.106;11.708;2022-12-07T05:40:32;12.27;;;10.43;;
1831;SDS011;1680;48.106;11.708;2022-12-07T05:42:59;11.40;;;10.27;;
1831;SDS011;1680;48.106;11.708;2022-12-07T05:45:28;11.45;;;10.25;;
1831;SDS011;1680;48.106;11.708;2022-12-07T05:47:55;12.63;;;10.97;;
1831;SDS011;1680;48.106;11.708;2022-12-07T05:50:22;11.48;;;10.27;;
1831;SDS011;1680;48.106;11.708;2022-12-07T05:52:49;11.25;;;10.05;;
1831;SDS011;1680;48.106;11.708;2022-12-07T05:55:16;11.70;;;10.50;;
1831;SDS011;1680;48.106;11.708;2022-12-07T05:57:43;11.50;;;10.20;;
1831;SDS011;1680;48.106;11.708;2022-12-07T06:00:32;12.10;;;10.70;;
1831;SDS011;1680;48.106;11.708;2022-12-07T06:02:58;11.17;;;10.07;;
1831;SDS011;1680;48.106;11.708;2022-12-07T06:05:25;11.07;;;9.82;;
1831;SDS011;1680;48.106;11.708;2022-12-07T06:07:52;12.20;;;10.90;;
1831;SDS011;1680;48.106;11.708;2022-12-07T06:10:19;12.55;;;10.23;;
1831;SDS011;1680;48.106;11.708;2022-12-07T06:12:46;10.82;;;9.60;;
1831;SDS011;1680;48.106;11.708;2022-12-07T06:15:12;10.57;;;9.47;;
1831;SDS011;1680;48.106;11.708;2022-12-07T06:17:41;10.27;;;9.03;;
1831;SDS011;1680;48.106;11.708;2022-12-07T06:20:08;11.50;;;10.03;;
1831;SDS011;1680;48.106;11.708;2022-12-07T06:22:36;10.98;;;9.88;;
1831;SDS011;1680;48.106;11.708;2022-12-07T06:25:03;11.43;;;10.17;;
1831;SDS011;1680;48.106;11.708;2022-12-07T06:27:31;12.15;;;10.35;;
1831;SDS011;1680;48.106;11.708;2022-12-07T06:30:00;11.13;;;10.07;;
1831;SDS011;1680;48.106;11.708;2022-12-07T06:32:31;11.30;;;10.10;;
1831;SDS011;1680;48.106;11.708;2022-12-07T06:35:00;12.02;;;10.10;;
1831;SDS011;1680;48.106;11.708;2022-12-07T06:37:27;11.57;;;9.57;;
1831;SDS011;1680;48.106;11.708;2022-12-07T06:39:54;10.77;;;9.68;;
1831;SDS011;1680;48.106;11.708;2022-12-07T06:42:21;10.68;;;9.57;;
1831;SDS011;1680;48.106;11.708;2022-12-07T06:44:49;11.38;;;10.18;;
1831;SDS011;1680;48.106;11.708;2022-12-07T06:47:16;10.15;;;8.98;;
1831;SDS011;1680;48.106;11.708;2022-12-07T06:49:43;10.40;;;9.30;;
1831;SDS011;1680;48.106;11.708;2022-12-07T06:52:11;10.95;;;9.88;;
1831;SDS011;1680;48.106;11.708;2022-12-07T06:54:44;10.70;;;9.60;;
1831;SDS011;1680;48.106;11.708;2022-12-07T06:57:11;10.60;;;9.50;;
1831;SDS011;1680;48.106;11.708;2022-12-07T06:59:38;10.88;;;9.65;;
1831;SDS011;1680;48.106;11.708;2022-12-07T07:02:05;11.03;;;9.60;;
1831;SDS011;1680;48.106;11.708;2022-12-07T07:04:34;10.65;;;9.45;;
1831;SDS011;1680;48.106;11.708;2022-12-07T07:07:01;11.27;;;9.77;;
1831;SDS011;1680;48.106;11.708;2022-12-07T07:09:29;10.80;;;9.70;;
1831;SDS011;1680;48.106;11.708;2022-12-07T07:11:57;11.83;;;10.63;;
1831;SDS011;1680;48.106;11.708;2022-12-07T07:14:24;14.60;;;12.07;;
1831;SDS011;1680;48.106;11.708;2022-12-07T07:16:51;12.20;;;11.00;;
1831;SDS011;1680;48.106;11.708;2022-12-07T07:19:18;13.52;;;12.13;;
1831;SDS011;1680;48.106;11.708;2022-12-07T07:21:45;11.18;;;9.98;;
1831;SDS011;1680;48.106;11.708;2022-12-07T07:24:12;11.98;;;10.70;;
1831;SDS011;1680;48.106;11.708;2022-12-07T07:26:41;13.67;;;11.70;;
1831;SDS011;1680;48.106;11.708;2022-12-07T07:29:08;12.48;;;11.25;;
1831;SDS011;1680;48.106;11.708;2022-12-07T07:31:35;12.65;;;11.00;;
1831;SDS011;1680;48.106;11.708;2022-12-07T07:34:02;11.70;;;10.20;;
1831;SDS011;1680;48.106;11.708;2022-12-07T07:36:29;12.32;;;11.07;;
1831;SDS011;1680;48.106;11.708;2022-12-07T07:38:56;13.77;;;11.40;;
1831;SDS011;1680;48.106;11.708;2022-12-07T07:41:23;11.57;;;10.23;;
1831;SDS011;1680;48.106;11.708;2022-12-07T07:43:52;12.17;;;10.40;;
1831;SDS011;1680;48.106;11.708;2022-12-07T07:46:19;11.60;;;10.40;;
1831;SDS011;1680;48.106;11.708;2022-12-07T07:48:46;12.03;;;10.60;;
1831;SDS011;1680;48.106;11.708;2022-12-07T07:51:13;11.90;;;10.60;;
1831;SDS011;1680;48.106;11.708;2022-12-07T07:53:40;11.60;;;10.00;;
1831;SDS011;1680;48.106;11.708;2022-12-07T07:56:07;12.07;;;10.50;;
1831;SDS011;1680;48.106;11.708;2022-12-07T07:58:34;11.63;;;9.40;;
1831;SDS011;1680;48.106;11.708;2022-12-07T08:01:05;10.97;;;9.83;;
1831;SDS011;1680;48.106;11.708;2022-12-07T08:03:35;9.63;;;8.70;;
1831;SDS011;1680;48.106;11.708;2022-12-07T08:06:02;10.80;;;9.70;;
1831;SDS011;1680;48.106;11.708;2022-12-07T08:08:30;10.70;;;8.73;;
1831;SDS011;1680;48.106;11.708;2022-12-07T08:10:57;11.50;;;9.63;;
1831;SDS011;1680;48.106;11.708;2022-12-07T08:13:26;12.00;;;9.90;;
1831;SDS011;1680;48.106;11.708;2022-12-07T08:15:53;11.10;;;10.00;;
1831;SDS011;1680;48.106;11.708;2022-12-07T08:18:21;10.07;;;8.93;;
1831;SDS011;1680;48.106;11.708;2022-12-07T08:20:48;11.05;;;9.43;;
1831;SDS011;1680;48.106;11.708;2022-12-07T08:23:16;11.30;;;9.57;;
1831;SDS011;1680;48.106;11.708;2022-12-07T08:25:43;10.00;;;9.00;;
1831;SDS011;1680;48.106;11.708;2022-12-07T08:28:10;10.27;;;9.13;;
1831;SDS011;1680;48.106;11.708;2022-12-07T08:30:37;10.37;;;8.60;;
1831;SDS011;1680;48.106;11.708;2022-12-07T08:33:04;11.55;;;9.90;;
1831;SDS011;1680;48.106;11.708;2022-12-07T08:35:33;11.23;;;10.00;;
1831;SDS011;1680;48.106;11.708;2022-12-07T08:38:01;10.23;;;9.13;;
1831;SDS011;1680;48.106;11.708;2022-12-07T08:40:28;10.48;;;9.30;;
1831;SDS011;1680;48.106;11.708;2022-12-07T08:42:56;11.97;;;9.10;;
1831;SDS011;1680;48.106;11.708;2022-12-07T08:45:23;9.57;;;8.27;;
1831;SDS011;1680;48.106;11.708;2022-12-07T08:47:50;11.55;;;8.85;;
1831;SDS011;1680;48.106;11.708;2022-12-07T08:50:21;10.07;;;8.93;;
1831;SDS011;1680;48.106;11.708;2022-12-07T08:52:52;9.50;;;8.50;;
1831;SDS011;1680;48.106;11.708;2022-12-07T08:55:21;9.80;;;8.50;;
1831;SDS011;1680;48.106;11.708;2022-12-07T08:57:49;10.03;;;8.60;;
1831;SDS011;1680;48.106;11.708;2022-12-07T09:00:17;9.83;;;8.83;;
1831;SDS011;1680;48.106;11.708;2022-12-07T09:02:45;10.20;;;9.10;;
1831;SDS011;1680;48.106;11.708;2022-12-07T09:05:15;12.97;;;9.60;;
1831;SDS011;1680;48.106;11.708;2022-12-07T09:07:42;8.97;;;8.07;;
1831;SDS011;1680;48.106;11.708;2022-12-07T09:10:13;9.63;;;8.07;;
1831;SDS011;1680;48.106;11.708;2022-12-07T09:12:40;10.43;;;9.20;;
1831;SDS011;1680;48.106;11.708;2022-12-07T09:15:07;10.13;;;8.47;;
1831;SDS011;1680;48.106;11.708;2022-12-07T09:17:35;10.13;;;8.83;;
1831;SDS011;1680;48.106;11.708;2022-12-07T09:20:03;10.30;;;9.30;;
1831;SDS011;1680;48.106;11.708;2022-12-07T09:22:31;10.33;;;9.27;;
1831;SDS011;1680;48.106;11.708;2022-12-07T09:24:59;9.93;;;8.93;;
1831;SDS011;1680;48.106;11.708;2022-12-07T09:27:28;9.50;;;8.43;;
1831;SDS011;1680;48.106;11.708;2022-12-07T09:29:55;11.10;;;9.63;;
1831;SDS011;1680;48.106;11.708;2022-12-07T09:32:22;9.73;;;8.73;;
1831;SDS011;1680;48.106;11.708;2022-12-07T09:34:51;10.47;;;9.37;;
1831;SDS011;1680;48.106;11.708;2022-12-07T09:37:19;10.90;;;8.87;;
1831;SDS011;1680;48.106;11.708;2022-12-07T09:39:46;9.23;;;8.07;;
1831;SDS011;1680;48.106;11.708;2022-12-07T09:42:17;11.50;;;9.97;;
1831;SDS011;1680;48.106;11.708;2022-12-07T09:44:55;10.83;;;8.60;;
1831;SDS011;1680;48.106;11.708;2022-12-07T09:47:23;9.90;;;8.90;;
1831;SDS011;1680;48.106;11.708;2022-12-07T09:49:51;8.70;;;7.80;;
1831;SDS011;1680;48.106;11.708;2022-12-07T09:52:20;10.63;;;9.23;;
1831;SDS011;1680;48.106;11.708;2022-12-07T09:54:53;10.10;;;9.10;;
1831;SDS011;1680;48.106;11.708;2022-12-07T09:57:23;9.63;;;8.63;;
1831;SDS011;1680;48.106;11.708;2022-12-07T09:59:57;9.40;;;8.40;;
1831;SDS011;1680;48.106;11.708;2022-12-07T10:02:35;10.30;;;9.27;;
1831;SDS011;1680;48.106;11.708;2022-12-07T10:05:04;9.80;;;8.53;;
1831;SDS011;1680;48.106;11.708;2022-12-07T10:07:33;9.90;;;8.80;;
1831;SDS011;1680;48.106;11.708;2022-12-07T10:10:02;9.00;;;7.73;;
1831;SDS011;1680;48.106;11.708;2022-12-07T10:12:30;10.30;;;8.27;;
1831;SDS011;1680;48.106;11.708;2022-12-07T10:15:20;10.23;;;8.33;;
1831;SDS011;1680;48.106;11.708;2022-12-07T10:17:48;8.70;;;7.80;;
1831;SDS011;1680;48.106;11.708;2022-12-07T10:20:18;9.67;;;8.47;;
1831;SDS011;1680;48.106;11.708;2022-12-07T10:22:55;10.27;;;8.43;;
1831;SDS011;1680;48.106;11.708;2022-12-07T10:25:25;8.80;;;7.90;;
1831;SDS011;1680;48.106;11.708;2022-12-07T10:27:57;8.87;;;7.77;;
1831;SDS011;1680;48.106;11.708;2022-12-07T10:30:27;8.90;;;8.00;;
1831;SDS011;1680;48.106;11.708;2022-12-07T10:32:56;8.33;;;7.43;;
1831;SDS011;1680;48.106;11.708;2022-12-07T10:35:24;8.57;;;7.77;;
1831;SDS011;1680;48.106;11.708;2022-12-07T10:37:54;8.47;;;7.53;;
1831;SDS011;1680;48.106;11.708;2022-12-07T10:40:26;9.20;;;7.90;;
1831;SDS011;1680;48.106;11.708;2022-12-07T10:43:10;9.60;;;8.60;;
1831;SDS011;1680;48.106;11.708;2022-12-07T10:45:58;8.90;;;7.80;;
1831;SDS011;1680;48.106;11.708;2022-12-07T10:48:55;8.60;;;7.70;;
1831;SDS011;1680;48.106;11.708;2022-12-07T10:51:33;8.93;;;8.07;;
1831;SDS011;1680;48.106;11.708;2022-12-07T10:54:12;9.17;;;8.27;;
1831;SDS011;1680;48.106;11.708;2022-12-07T10:56:54;9.00;;;8.10;;
1831;SDS011;1680;48.106;11.708;2022-12-07T10:59:41;9.67;;;8.10;;
1831;SDS011;1680;48.106;11.708;2022-12-07T11:05:21;8.90;;;7.93;;
1831;SDS011;1680;48.106;11.708;2022-12-07T11:07:56;9.50;;;8.47;;
1831;SDS011;1680;48.106;11.708;2022-12-07T11:10:30;11.43;;;9.43;;
1831;SDS011;1680;48.106;11.708;2022-12-07T11:13:16;11.20;;;8.90;;
1831;SDS011;1680;48.106;11.708;2022-12-07T11:15:59;10.03;;;8.93;;
1831;SDS011;1680;48.106;11.708;2022-12-07T11:18:38;11.03;;;9.60;;
1831;SDS011;1680;48.106;11.708;2022-12-07T11:21:16;9.37;;;7.90;;
1831;SDS011;1680;48.106;11.708;2022-12-07T11:23:53;9.43;;;8.37;;
1831;SDS011;1680;48.106;11.708;2022-12-07T11:26:34;8.17;;;7.37;;
1831;SDS011;1680;48.106;11.708;2022-12-07T11:29:38;8.80;;;7.97;;
1831;SDS011;1680;48.106;11.708;2022-12-07T11:32:14;10.20;;;8.60;;
1831;SDS011;1680;48.106;11.708;2022-12-07T11:34:52;8.77;;;7.87;;
1831;SDS011;1680;48.106;11.708;2022-12-07T11:37:30;8.20;;;6.97;;
1831;SDS011;1680;48.106;11.708;2022-12-07T11:40:00;8.47;;;7.63;;
1831;SDS011;1680;48.106;11.708;2022-12-07T11:42:33;9.50;;;8.07;;
1831;SDS011;1680;48.106;11.708;2022-12-07T11:45:10;9.07;;;7.73;;
1831;SDS011;1680;48.106;11.708;2022-12-07T11:47:43;8.63;;;7.83;;
1831;SDS011;1680;48.106;11.708;2022-12-07T11:50:20;8.60;;;7.73;;
1831;SDS011;1680;48.106;11.708;2022-12-07T11:52:53;7.93;;;7.13;;
1831;SDS011;1680;48.106;11.708;2022-12-07T11:55:24;9.37;;;8.37;;
1831;SDS011;1680;48.106;11.708;2022-12-07T11:57:58;8.90;;;7.53;;
1831;SDS011;1680;48.106;11.708;2022-12-07T12:00:36;8.63;;;7.80;;
1831;SDS011;1680;48.106;11.708;2022-12-07T12:03:09;9.83;;;8.80;;
1831;SDS011;1680;48.106;11.708;2022-12-07T12:05:41;10.10;;;8.83;;
1831;SDS011;1680;48.106;11.708;2022-12-07T12:08:12;9.80;;;8.30;;
1831;SDS011;1680;48.106;11.708;2022-12-07T12:10:45;9.50;;;8.30;;
1831;SDS011;1680;48.106;11.708;2022-12-07T12:13:26;9.60;;;8.60;;
1831;SDS011;1680;48.106;11.708;2022-12-07T12:19:11;8.90;;;7.50;;
1831;SDS011;1680;48.106;11.708;2022-12-07T12:21:53;9.80;;;8.80;;
1831;SDS011;1680;48.106;11.708;2022-12-07T12:24:23;8.30;;;7.23;;
1831;SDS011;1680;48.106;11.708;2022-12-07T12:26:53;8.57;;;7.67;;
1831;SDS011;1680;48.106;11.708;2022-12-07T12:29:26;8.03;;;6.90;;
1831;SDS011;1680;48.106;11.708;2022-12-07T12:32:05;9.50;;;8.00;;
1831;SDS011;1680;48.106;11.708;2022-12-07T12:34:57;8.40;;;7.50;;
1831;SDS011;1680;48.106;11.708;2022-12-07T12:37:40;7.93;;;7.17;;
1831;SDS011;1680;48.106;11.708;2022-12-07T12:49:14;8.50;;;7.60;;
1831;SDS011;1680;48.106;11.708;2022-12-07T12:51:56;9.13;;;8.17;;
1831;SDS011;1680;48.106;11.708;2022-12-07T12:54:26;8.30;;;7.40;;
1831;SDS011;1680;48.106;11.708;2022-12-07T12:56:55;10.10;;;8.80;;
1831;SDS011;1680;48.106;11.708;2022-12-07T12:59:33;9.53;;;8.50;;
1831;SDS011;1680;48.106;11.708;2022-12-07T13:02:15;8.57;;;7.70;;
1831;SDS011;1680;48.106;11.708;2022-12-07T13:04:53;8.60;;;7.70;;
1831;SDS011;1680;48.106;11.708;2022-12-07T13:10:38;9.87;;;8.87;;
1831;SDS011;1680;48.106;11.708;2022-12-07T13:18:58;9.73;;;8.50;;
1831;SDS011;1680;48.106;11.708;2022-12-07T13:21:41;9.63;;;8.23;;
1831;SDS011;1680;48.106;11.708;2022-12-07T13:24:10;10.27;;;8.40;;
1831;SDS011;1680;48.106;11.708;2022-12-07T13:26:42;9.10;;;8.07;;
1831;SDS011;1680;48.106;11.708;2022-12-07T13:29:11;9.37;;;8.37;;
1831;SDS011;1680;48.106;11.708;2022-12-07T13:31:40;10.13;;;7.90;;
1831;SDS011;1680;48.106;11.708;2022-12-07T13:34:28;9.20;;;8.20;;
1831;SDS011;1680;48.106;11.708;2022-12-07T13:36:57;10.43;;;8.97;;
1831;SDS011;1680;48.106;11.708;2022-12-07T13:39:27;9.80;;;8.80;;
1831;SDS011;1680;48.106;11.708;2022-12-07T13:41:57;8.17;;;7.37;;
1831;SDS011;1680;48.106;11.708;2022-12-07T13:44:27;9.13;;;8.20;;
1831;SDS011;1680;48.106;11.708;2022-12-07T13:46:59;9.90;;;7.90;;
1831;SDS011;1680;48.106;11.708;2022-12-07T13:49:33;9.53;;;7.80;;
1831;SDS011;1680;48.106;11.708;2022-12-07T13:52:14;10.33;;;8.73;;
1831;SDS011;1680;48.106;11.708;2022-12-07T13:54:44;11.70;;;8.73;;
1831;SDS011;1680;48.106;11.708;2022-12-07T13:57:15;9.47;;;7.80;;
1831;SDS011;1680;48.106;11.708;2022-12-07T13:59:42;10.93;;;8.23;;
1831;SDS011;1680;48.106;11.708;2022-12-07T14:02:19;9.20;;;8.20;;
1831;SDS011;1680;48.106;11.708;2022-12-07T14:04:48;10.23;;;9.00;;
1831;SDS011;1680;48.106;11.708;2022-12-07T14:07:20;9.50;;;8.43;;
1831;SDS011;1680;48.106;11.708;2022-12-07T14:09:53;10.00;;;8.20;;
1831;SDS011;1680;48.106;11.708;2022-12-07T14:12:23;8.93;;;7.97;;
1831;SDS011;1680;48.106;11.708;2022-12-07T14:14:51;10.03;;;8.27;;
1831;SDS011;1680;48.106;11.708;2022-12-07T14:17:20;10.90;;;8.67;;
1831;SDS011;1680;48.106;11.708;2022-12-07T14:19:49;8.97;;;7.30;;
1831;SDS011;1680;48.106;11.708;2022-12-07T14:22:24;7.90;;;7.03;;
1831;SDS011;1680;48.106;11.708;2022-12-07T14:27:55;8.33;;;7.40;;
1831;SDS011;1680;48.106;11.708;2022-12-07T14:30:25;10.47;;;8.50;;
1831;SDS011;1680;48.106;11.708;2022-12-07T14:32:54;9.50;;;8.20;;
1831;SDS011;1680;48.106;11.708;2022-12-07T14:35:24;10.10;;;8.67;;
1831;SDS011;1680;48.106;11.708;2022-12-07T14:37:53;8.63;;;7.73;;
1831;SDS011;1680;48.106;11.708;2022-12-07T14:40:22;9.87;;;8.20;;
1831;SDS011;1680;48.106;11.708;2022-12-07T14:42:52;8.53;;;7.47;;
1831;SDS011;1680;48.106;11.708;2022-12-07T14:45:23;9.53;;;7.63;;
1831;SDS011;1680;48.106;11.708;2022-12-07T14:47:51;10.83;;;8.87;;
1831;SDS011;1680;48.106;11.708;2022-12-07T14:50:18;10.10;;;8.50;;
1831;SDS011;1680;48.106;11.708;2022-12-07T14:52:48;8.73;;;7.83;;
1831;SDS011;1680;48.106;11.708;2022-12-07T14:55:20;9.07;;;8.00;;
1831;SDS011;1680;48.106;11.708;2022-12-07T14:57:50;9.67;;;8.17;;
1831;SDS011;1680;48.106;11.708;2022-12-07T15:00:20;8.63;;;7.43;;
1831;SDS011;1680;48.106;11.708;2022-12-07T15:02:48;8.20;;;7.40;;
1831;SDS011;1680;48.106;11.708;2022-12-07T15:05:18;9.50;;;8.10;;
1831;SDS011;1680;48.106;11.708;2022-12-07T15:07:46;7.77;;;6.73;;
1831;SDS011;1680;48.106;11.708;2022-12-07T15:10:15;8.43;;;7.10;;
1831;SDS011;1680;48.106;11.708;2022-12-07T15:12:45;8.80;;;7.37;;
1831;SDS011;1680;48.106;11.708;2022-12-07T15:15:13;8.33;;;7.47;;
1831;SDS011;1680;48.106;11.708;2022-12-07T15:17:43;9.30;;;7.80;;
1831;SDS011;1680;48.106;11.708;2022-12-07T15:20:11;10.63;;;7.43;;
1831;SDS011;1680;48.106;11.708;2022-12-07T15:22:41;9.35;;;8.05;;
1831;SDS011;1680;48.106;11.708;2022-12-07T15:25:09;9.47;;;8.10;;
1831;SDS011;1680;48.106;11.708;2022-12-07T15:27:39;8.77;;;7.85;;
1831;SDS011;1680;48.106;11.708;2022-12-07T15:30:10;10.33;;;9.33;;
1831;SDS011;1680;48.106;11.708;2022-12-07T15:32:37;10.03;;;8.33;;
1831;SDS011;1680;48.106;11.708;2022-12-07T15:35:08;10.60;;;9.50;;
1831;SDS011;1680;48.106;11.708;2022-12-07T15:37:53;9.48;;;8.48;;
1831;SDS011;1680;48.106;11.708;2022-12-07T15:40:20;8.70;;;7.50;;
1831;SDS011;1680;48.106;11.708;2022-12-07T15:42:47;9.13;;;8.00;;
1831;SDS011;1680;48.106;11.708;2022-12-07T15:45:14;8.70;;;7.53;;
1831;SDS011;1680;48.106;11.708;2022-12-07T15:47:41;9.25;;;8.02;;